createdAt,value
2022-09-28T00:01:24.001Z,8.75
2022-09-28T00:03:54.597Z,8.79
2022-09-28T00:06:27.235Z,8.78
2022-09-28T00:08:55.098Z,8.78
2022-09-28T00:11:29.227Z,8.80
2022-09-28T00:14:02.458Z,8.85
2022-09-28T00:16:34.508Z,8.84
2022-09-28T00:19:12.234Z,8.87
2022-09-28T00:21:41.835Z,8.92
2022-09-28T00:24:13.272Z,8.92
2022-09-28T00:26:42.171Z,8.88
2022-09-28T00:29:29.190Z,8.82
2022-09-28T00:32:03.140Z,8.79
2022-09-28T00:34:38.181Z,8.77
2022-09-28T00:37:09.045Z,8.76
2022-09-28T00:39:38.707Z,8.77
2022-09-28T00:42:32.955Z,8.76
2022-09-28T00:45:04.107Z,8.72
2022-09-28T00:47:39.651Z,8.75
2022-09-28T00:50:21.267Z,8.77
2022-09-28T00:53:01.794Z,8.79
2022-09-28T00:55:40.071Z,8.78
2022-09-28T00:58:13.195Z,8.87
2022-09-28T01:00:41.155Z,8.92
2022-09-28T01:03:14.364Z,8.98
2022-09-28T01:05:42.309Z,9.03
2022-09-28T01:08:11.962Z,9.06
2022-09-28T01:10:40.986Z,9.07
2022-09-28T01:13:09.034Z,9.05
2022-09-28T01:15:49.212Z,9.06
2022-09-28T01:18:22.696Z,9.02
2022-09-28T01:21:02.442Z,9.01
2022-09-28T01:24:10.288Z,9.03
2022-09-28T01:26:51.206Z,9.04
2022-09-28T01:29:21.751Z,9.06
2022-09-28T01:32:25.951Z,9.11
2022-09-28T01:35:09.916Z,9.14
2022-09-28T01:37:55.238Z,9.13
2022-09-28T01:40:25.357Z,9.06
2022-09-28T01:43:01.257Z,9.00
2022-09-28T01:45:33.414Z,8.89
2022-09-28T01:48:04.853Z,8.82
2022-09-28T01:50:38.066Z,8.77
2022-09-28T01:53:38.937Z,8.71
2022-09-28T01:56:14.524Z,8.63
2022-09-28T01:58:44.240Z,8.61
2022-09-28T02:01:16.826Z,8.65
2022-09-28T02:03:51.202Z,8.72
2022-09-28T02:06:25.508Z,8.80
2022-09-28T02:08:58.217Z,8.82
2022-09-28T02:11:37.837Z,8.80
2022-09-28T02:14:10.090Z,8.82
2022-09-28T02:16:43.971Z,8.82
2022-09-28T02:19:18.162Z,8.79
2022-09-28T02:21:54.029Z,8.74
2022-09-28T02:24:55.667Z,8.73
2022-09-28T02:27:35.812Z,8.77
2022-09-28T02:30:05.536Z,8.81
2022-09-28T02:32:35.627Z,8.85
2022-09-28T02:35:03.779Z,8.81
2022-09-28T02:37:32.373Z,8.78
2022-09-28T02:40:05.239Z,8.75
2022-09-28T02:42:54.257Z,8.70
2022-09-28T02:45:41.481Z,8.71
2022-09-28T02:48:43.923Z,8.73
2022-09-28T02:51:24.009Z,8.75
2022-09-28T02:54:18.916Z,8.77
2022-09-28T02:57:03.971Z,8.75
2022-09-28T02:59:46.945Z,8.76
2022-09-28T03:02:25.999Z,8.82
2022-09-28T03:05:11.467Z,8.86
2022-09-28T03:07:52.339Z,8.84
2022-09-28T03:10:31.107Z,8.74
2022-09-28T03:12:59.274Z,8.67
2022-09-28T03:15:30.559Z,8.71
2022-09-28T03:17:58.976Z,8.74
2022-09-28T03:20:28.275Z,8.74
2022-09-28T03:23:20.093Z,8.76
2022-09-28T03:25:44.347Z,8.83
2022-09-28T03:28:12.225Z,8.86
2022-09-28T03:30:41.687Z,8.84
2022-09-28T03:33:10.861Z,8.86
2022-09-28T03:35:40.199Z,8.86
2022-09-28T03:38:10.715Z,8.89
2022-09-28T03:40:39.034Z,8.92
2022-09-28T03:43:07.365Z,8.93
2022-09-28T03:45:35.561Z,8.96
2022-09-28T03:48:03.777Z,9.00
2022-09-28T03:50:31.877Z,9.04
2022-09-28T03:53:05.155Z,9.07
2022-09-28T03:55:32.995Z,9.12
2022-09-28T03:58:01.147Z,9.13
2022-09-28T04:00:31.103Z,9.10
2022-09-28T04:02:59.230Z,9.09
2022-09-28T04:05:27.217Z,9.09
2022-09-28T04:07:58.565Z,9.07
2022-09-28T04:10:26.795Z,9.07
2022-09-28T04:12:58.157Z,9.07
2022-09-28T04:15:26.061Z,9.11
2022-09-28T04:17:54.024Z,9.11
2022-09-28T04:20:48.296Z,9.14
2022-09-28T04:23:16.871Z,9.16
2022-09-28T04:25:47.818Z,9.20
2022-09-28T04:28:34.389Z,9.21
2022-09-28T04:31:02.280Z,9.19
2022-09-28T04:33:31.683Z,9.17
2022-09-28T04:36:00.621Z,9.16
2022-09-28T04:38:51.393Z,9.13
2022-09-28T04:41:18.610Z,9.11
2022-09-28T04:43:47.456Z,9.12
2022-09-28T04:46:20.342Z,9.15
2022-09-28T04:49:05.465Z,9.17
2022-09-28T04:51:50.151Z,9.17
2022-09-28T04:54:21.772Z,9.18
2022-09-28T04:56:49.945Z,9.18
2022-09-28T04:59:39.589Z,9.17
2022-09-28T05:02:08.030Z,9.16
2022-09-28T05:04:41.686Z,9.14
2022-09-28T05:07:17.776Z,9.19
2022-09-28T05:09:46.261Z,9.24
2022-09-28T05:12:17.176Z,9.30
2022-09-28T05:14:45.177Z,9.34
2022-09-28T05:17:13.162Z,9.35
2022-09-28T05:20:10.485Z,9.37
2022-09-28T05:22:38.458Z,9.38
2022-09-28T05:25:09.436Z,9.41
2022-09-28T05:27:48.901Z,9.47
2022-09-28T05:30:43.674Z,9.49
2022-09-28T05:33:39.016Z,9.58
2022-09-28T05:36:14.629Z,9.66
2022-09-28T05:38:43.781Z,9.74
2022-09-28T05:41:13.269Z,9.81
2022-09-28T05:43:45.698Z,9.86
2022-09-28T05:46:14.738Z,9.90
2022-09-28T05:48:43.181Z,9.93
2022-09-28T05:51:11.262Z,9.98
2022-09-28T05:53:39.155Z,10.07
2022-09-28T05:56:09.306Z,10.17
2022-09-28T05:58:39.716Z,10.27
2022-09-28T06:01:12.661Z,10.37
2022-09-28T06:03:40.666Z,10.45
2022-09-28T06:06:09.150Z,10.50
2022-09-28T06:08:37.565Z,10.49
2022-09-28T06:11:27.147Z,10.49
2022-09-28T06:13:56.298Z,10.51
2022-09-28T06:16:31.007Z,10.52
2022-09-28T06:19:01.579Z,10.52
2022-09-28T06:21:52.383Z,10.53
2022-09-28T06:24:20.323Z,10.53
2022-09-28T06:26:48.716Z,10.61
2022-09-28T06:29:19.871Z,10.66
2022-09-28T06:31:48.517Z,10.66
2022-09-28T06:34:18.055Z,10.65
2022-09-28T06:36:46.139Z,10.68
2022-09-28T06:39:14.386Z,10.72
2022-09-28T06:41:42.495Z,10.78
2022-09-28T06:44:18.007Z,10.80
2022-09-28T06:47:04.810Z,10.82
2022-09-28T06:49:58.116Z,10.90
2022-09-28T06:52:29.559Z,10.97
2022-09-28T06:55:18.170Z,11.07
2022-09-28T06:57:59.398Z,11.21
2022-09-28T07:00:31.092Z,11.32
2022-09-28T07:02:59.284Z,11.41
2022-09-28T07:05:59.387Z,11.51
2022-09-28T07:09:03.787Z,11.58
2022-09-28T07:12:00.108Z,11.72
2022-09-28T07:14:47.873Z,11.91
2022-09-28T07:17:16.618Z,12.11
2022-09-28T07:19:44.663Z,12.26
2022-09-28T07:22:18.579Z,12.43
2022-09-28T07:24:48.991Z,12.55
2022-09-28T07:27:38.045Z,12.42
2022-09-28T07:30:28.274Z,12.47
2022-09-28T07:33:17.632Z,12.62
2022-09-28T07:36:08.504Z,12.55
2022-09-28T07:38:36.473Z,12.49
2022-09-28T07:41:11.661Z,12.57
2022-09-28T07:43:49.788Z,12.69
2022-09-28T07:46:18.040Z,12.79
2022-09-28T07:48:58.396Z,12.98
2022-09-28T07:51:58.863Z,13.20
2022-09-28T07:54:31.269Z,13.33
2022-09-28T07:56:59.461Z,13.45
2022-09-28T07:59:41.272Z,13.73
2022-09-28T08:02:28.128Z,13.80
2022-09-28T08:04:56.472Z,13.94
2022-09-28T08:07:25.709Z,14.09
2022-09-28T08:10:06.176Z,14.31
2022-09-28T08:12:41.327Z,14.33
2022-09-28T08:15:37.179Z,14.23
2022-09-28T08:18:17.216Z,14.17
2022-09-28T08:21:04.889Z,14.23
2022-09-28T08:23:37.074Z,14.32
2022-09-28T08:26:15.184Z,14.37
2022-09-28T08:28:46.823Z,14.28
2022-09-28T08:31:51.715Z,14.26
2022-09-28T08:34:49.148Z,14.25
2022-09-28T08:37:49.861Z,14.41
2022-09-28T08:41:04.464Z,14.57
2022-09-28T08:43:52.583Z,14.61
2022-09-28T08:46:48.816Z,14.69
2022-09-28T08:49:57.098Z,15.01
2022-09-28T08:52:53.342Z,15.26
2022-09-28T08:55:48.032Z,15.20
2022-09-28T08:58:24.505Z,15.08
2022-09-28T09:00:54.671Z,15.29
2022-09-28T09:03:32.587Z,15.50
2022-09-28T09:07:00.738Z,15.35
2022-09-28T09:09:45.733Z,15.32
2022-09-28T09:12:41.880Z,15.63
2022-09-28T09:20:03.006Z,16.41
2022-09-28T09:23:00.849Z,16.36
2022-09-28T09:25:41.085Z,16.60
2022-09-28T09:28:32.800Z,16.83
2022-09-28T09:31:43.209Z,16.95
2022-09-28T09:34:27.254Z,17.13
2022-09-28T09:37:42.361Z,16.96
2022-09-28T09:41:08.812Z,16.65
2022-09-28T09:44:57.270Z,16.34
2022-09-28T09:47:55.599Z,16.07
2022-09-28T09:50:57.898Z,16.09
2022-09-28T09:53:38.389Z,16.12
2022-09-28T09:56:14.756Z,16.13
2022-09-28T09:59:12.122Z,16.17
2022-09-28T10:01:58.587Z,16.15
2022-09-28T10:04:44.610Z,16.05
2022-09-28T10:07:25.937Z,15.92
2022-09-28T10:09:57.049Z,15.73
2022-09-28T10:12:40.692Z,15.58
2022-09-28T10:15:14.998Z,15.44
2022-09-28T10:17:49.831Z,15.33
2022-09-28T10:20:38.594Z,15.18
2022-09-28T10:23:31.649Z,15.07
2022-09-28T10:26:25.319Z,14.99
2022-09-28T10:29:13.140Z,14.99
2022-09-28T10:31:48.310Z,15.00
2022-09-28T10:34:28.694Z,15.00
2022-09-28T10:37:05.472Z,14.88
2022-09-28T10:39:55.758Z,14.75
2022-09-28T10:42:30.629Z,14.72
2022-09-28T10:45:04.831Z,14.64
2022-09-28T10:47:43.908Z,14.57
2022-09-28T10:50:23.230Z,14.38
2022-09-28T10:53:11.354Z,14.11
2022-09-28T10:56:18.860Z,13.77
2022-09-28T10:58:48.342Z,13.52
2022-09-28T11:01:31.929Z,13.38
2022-09-28T11:04:05.358Z,13.29
2022-09-28T11:06:38.901Z,13.15
2022-09-28T11:09:21.198Z,13.05
2022-09-28T11:11:49.150Z,12.92
2022-09-28T11:14:44.387Z,12.87
2022-09-28T11:17:30.515Z,12.80
2022-09-28T11:20:27.789Z,12.56
2022-09-28T11:23:00.578Z,12.36
2022-09-28T11:25:32.650Z,12.21
2022-09-28T11:28:04.496Z,12.05
2022-09-28T11:30:54.771Z,11.90
2022-09-28T11:34:12.838Z,11.69
2022-09-28T11:37:04.801Z,11.51
2022-09-28T11:39:32.637Z,11.44
2022-09-28T11:42:16.101Z,11.42
2022-09-28T11:44:52.805Z,11.33
2022-09-28T11:47:41.798Z,11.23
2022-09-28T11:50:27.971Z,11.21
2022-09-28T11:53:17.433Z,11.22
2022-09-28T11:55:50.131Z,11.26
2022-09-28T11:58:38.183Z,11.31
2022-09-28T12:01:31.289Z,11.39
2022-09-28T12:04:28.930Z,11.47
2022-09-28T12:07:00.247Z,11.55
2022-09-28T12:10:05.184Z,11.56
2022-09-28T12:12:38.892Z,11.44
2022-09-28T12:18:56.507Z,11.53
2022-09-28T12:21:24.374Z,11.57
2022-09-28T12:23:56.146Z,11.66
2022-09-28T12:26:37.301Z,11.71
2022-09-28T12:29:13.158Z,11.73
2022-09-28T12:32:05.009Z,11.76
2022-09-28T12:34:32.928Z,11.85
2022-09-28T12:37:03.529Z,11.88
2022-09-28T12:39:58.068Z,11.91
2022-09-28T12:42:54.689Z,11.89
2022-09-28T12:46:09.917Z,11.81
2022-09-28T12:52:06.706Z,11.77
2022-09-28T12:54:59.164Z,11.78
2022-09-28T12:57:33.092Z,11.82
2022-09-28T13:00:24.749Z,11.86
2022-09-28T13:03:07.130Z,11.97
2022-09-28T13:05:56.826Z,12.04
2022-09-28T13:08:53.412Z,12.10
2022-09-28T13:11:34.366Z,12.20
2022-09-28T13:14:29.019Z,12.26
2022-09-28T13:17:01.272Z,12.32
2022-09-28T13:19:38.510Z,12.40
2022-09-28T13:22:44.529Z,12.46
2022-09-28T13:25:22.750Z,12.52
2022-09-28T13:27:52.834Z,12.54
2022-09-28T13:30:21.871Z,12.55
2022-09-28T13:32:50.047Z,12.47
2022-09-28T13:35:21.613Z,12.43
2022-09-28T13:38:15.314Z,12.42
2022-09-28T13:41:05.270Z,12.34
2022-09-28T13:43:42.150Z,12.17
2022-09-28T13:46:36.328Z,12.09
2022-09-28T13:49:19.266Z,12.05
2022-09-28T13:52:02.863Z,12.04
2022-09-28T13:54:41.349Z,12.02
2022-09-28T13:57:10.029Z,12.07
2022-09-28T13:59:51.521Z,12.18
2022-09-28T14:02:31.754Z,12.33
2022-09-28T14:05:06.541Z,12.36
2022-09-28T14:07:34.468Z,12.41
2022-09-28T14:10:21.474Z,12.37
2022-09-28T14:12:53.528Z,12.37
2022-09-28T14:15:30.693Z,12.36
2022-09-28T14:17:58.530Z,12.46
2022-09-28T14:20:27.546Z,12.60
2022-09-28T14:23:00.973Z,12.89
2022-09-28T14:25:32.093Z,14.25
2022-09-28T14:28:29.986Z,15.56
2022-09-28T14:30:59.682Z,15.59
2022-09-28T14:33:35.150Z,17.42
2022-09-28T14:36:06.680Z,19.13
2022-09-28T14:38:56.550Z,20.40
2022-09-28T14:41:35.112Z,21.58
2022-09-28T14:44:08.422Z,21.65
2022-09-28T14:46:45.429Z,22.63
2022-09-28T14:49:24.921Z,23.64
2022-09-28T14:51:58.505Z,24.34
2022-09-28T14:54:34.907Z,24.22
2022-09-28T14:57:15.531Z,24.51
2022-09-28T14:59:46.294Z,24.93
2022-09-28T15:02:26.071Z,25.13
2022-09-28T15:05:00.125Z,25.72
2022-09-28T15:07:48.120Z,26.54
2022-09-28T15:10:27.541Z,27.27
2022-09-28T15:12:57.219Z,27.72
2022-09-28T15:15:33.737Z,27.21
2022-09-28T15:18:18.544Z,25.60
2022-09-28T15:20:48.337Z,25.89
2022-09-28T15:23:30.236Z,27.05
2022-09-28T15:25:58.468Z,28.07
2022-09-28T15:28:26.633Z,28.90
2022-09-28T15:31:06.965Z,29.49
2022-09-28T15:33:59.850Z,28.93
2022-09-28T15:36:30.555Z,26.59
2022-09-28T15:39:04.110Z,24.95
2022-09-28T15:41:33.537Z,23.36
2022-09-28T15:44:27.266Z,22.12
2022-09-28T15:47:06.849Z,20.81
2022-09-28T15:49:53.499Z,19.93
2022-09-28T15:52:47.069Z,19.11
2022-09-28T15:55:25.811Z,18.74
2022-09-28T15:58:12.602Z,18.51
2022-09-28T16:00:40.506Z,17.80
2022-09-28T16:03:08.795Z,17.22
2022-09-28T16:05:39.772Z,16.69
2022-09-28T16:08:22.083Z,16.22
2022-09-28T16:11:09.191Z,15.73
2022-09-28T16:13:46.699Z,15.30
2022-09-28T16:16:15.954Z,15.05
2022-09-28T16:18:48.267Z,14.82
2022-09-28T16:21:44.250Z,14.57
2022-09-28T16:24:24.725Z,14.35
2022-09-28T16:26:57.224Z,14.19
2022-09-28T16:29:32.641Z,14.05
2022-09-28T16:32:26.657Z,13.92
2022-09-28T16:35:10.887Z,13.78
2022-09-28T16:37:42.710Z,13.67
2022-09-28T16:40:12.981Z,13.58
2022-09-28T16:42:48.175Z,13.51
2022-09-28T16:45:23.342Z,13.43
2022-09-28T16:47:55.836Z,13.32
2022-09-28T16:50:24.815Z,13.23
2022-09-28T16:53:30.352Z,13.16
2022-09-28T16:55:58.743Z,13.14
2022-09-28T16:58:28.009Z,13.15
2022-09-28T17:00:56.524Z,13.14
2022-09-28T17:03:25.331Z,13.09
2022-09-28T17:05:53.747Z,13.00
2022-09-28T17:08:23.869Z,12.92
2022-09-28T17:13:47.717Z,12.77
2022-09-28T17:19:20.155Z,12.65
2022-09-28T17:21:48.878Z,12.57
2022-09-28T17:24:17.684Z,12.56
2022-09-28T17:26:49.998Z,12.54
2022-09-28T17:29:18.651Z,12.49
2022-09-28T17:31:47.892Z,12.35
2022-09-28T17:34:16.376Z,12.25
2022-09-28T17:36:45.024Z,12.15
2022-09-28T17:39:15.071Z,12.01
2022-09-28T17:41:43.624Z,11.87
2022-09-28T17:44:16.396Z,11.77
2022-09-28T17:46:49.756Z,11.66
2022-09-28T17:49:17.682Z,11.61
2022-09-28T17:51:45.769Z,11.57
2022-09-28T17:54:16.888Z,11.55
2022-09-28T17:56:46.279Z,11.51
2022-09-28T17:59:17.480Z,11.42
2022-09-28T18:01:45.543Z,11.37
2022-09-28T18:04:33.380Z,11.31
2022-09-28T18:07:02.791Z,11.28
2022-09-28T18:09:30.637Z,11.23
2022-09-28T18:12:01.016Z,11.18
2022-09-28T18:14:29.122Z,11.05
2022-09-28T18:16:57.297Z,10.90
2022-09-28T18:19:28.648Z,10.79
2022-09-28T18:21:59.927Z,10.71
2022-09-28T18:24:28.090Z,10.64
2022-09-28T18:26:55.902Z,10.58
2022-09-28T18:29:23.966Z,10.56
2022-09-28T18:31:52.132Z,10.54
2022-09-28T18:34:20.054Z,10.53
2022-09-28T18:36:48.336Z,10.55
2022-09-28T18:39:16.143Z,10.57
2022-09-28T18:41:43.902Z,10.58
2022-09-28T18:44:11.666Z,10.61
2022-09-28T18:46:42.637Z,10.63
2022-09-28T18:49:11.184Z,10.64
2022-09-28T18:51:39.016Z,10.66
2022-09-28T18:54:07.713Z,10.67
2022-09-28T18:56:38.035Z,10.66
2022-09-28T18:59:17.413Z,10.65
2022-09-28T19:01:46.632Z,10.54
2022-09-28T19:04:15.339Z,10.40
2022-09-28T19:06:44.801Z,10.29
2022-09-28T19:09:13.433Z,10.14
2022-09-28T19:11:43.941Z,9.99
2022-09-28T19:14:15.132Z,9.89
2022-09-28T19:16:44.469Z,9.78
2022-09-28T19:19:14.705Z,9.75
2022-09-28T19:21:44.949Z,9.71
2022-09-28T19:24:15.736Z,9.69
2022-09-28T19:26:44.374Z,9.60
2022-09-28T19:29:12.936Z,9.58
2022-09-28T19:31:43.244Z,9.55
2022-09-28T19:34:13.502Z,9.56
2022-09-28T19:36:42.632Z,9.62
2022-09-28T19:39:14.571Z,9.60
2022-09-28T19:41:51.507Z,9.63
2022-09-28T19:44:27.639Z,9.66
2022-09-28T19:47:06.837Z,9.68
2022-09-28T19:49:38.048Z,9.68
2022-09-28T19:52:16.099Z,9.69
2022-09-28T19:55:01.015Z,9.69
2022-09-28T19:57:31.115Z,9.67
2022-09-28T20:00:03.266Z,9.67
2022-09-28T20:02:36.314Z,9.67
2022-09-28T20:05:04.452Z,9.66
2022-09-28T20:07:34.210Z,9.66
2022-09-28T20:10:02.244Z,9.65
2022-09-28T20:12:30.471Z,9.61
2022-09-28T20:14:58.289Z,9.57
2022-09-28T20:17:26.118Z,9.51
2022-09-28T20:19:54.003Z,9.45
2022-09-28T20:22:21.950Z,9.39
2022-09-28T20:24:49.754Z,9.36
2022-09-28T20:27:17.621Z,9.32
2022-09-28T20:29:45.434Z,9.26
2022-09-28T20:32:14.267Z,9.21
2022-09-28T20:34:42.081Z,9.16
2022-09-28T20:37:09.876Z,9.10
2022-09-28T20:39:40.450Z,9.10
2022-09-28T20:42:11.990Z,9.10
2022-09-28T20:44:39.746Z,9.03
2022-09-28T20:47:07.526Z,8.97
2022-09-28T20:49:35.354Z,8.91
2022-09-28T20:52:03.230Z,8.87
2022-09-28T20:54:31.034Z,8.80
2022-09-28T20:56:58.870Z,8.75
2022-09-28T20:59:27.758Z,8.73
2022-09-28T21:01:55.930Z,8.78
2022-09-28T21:04:24.235Z,8.82
2022-09-28T21:06:53.138Z,8.83
2022-09-28T21:09:20.882Z,8.86
2022-09-28T21:11:48.664Z,8.90
2022-09-28T21:14:16.499Z,8.93
2022-09-28T21:16:44.326Z,8.98
2022-09-28T21:19:12.088Z,9.07
2022-09-28T21:21:39.884Z,9.12
2022-09-28T21:24:08.270Z,9.15
2022-09-28T21:26:36.420Z,9.18
2022-09-28T21:29:06.566Z,9.12
2022-09-28T21:31:39.577Z,9.04
2022-09-28T21:34:13.295Z,8.95
2022-09-28T21:36:43.350Z,8.91
2022-09-28T21:39:11.104Z,8.89
2022-09-28T21:41:39.386Z,8.91
2022-09-28T21:44:08.186Z,8.95
2022-09-28T21:46:37.091Z,8.96
2022-09-28T21:49:07.520Z,8.96
2022-09-28T21:51:35.769Z,8.96
2022-09-28T21:54:03.821Z,8.93
2022-09-28T21:56:31.773Z,8.96
2022-09-28T21:59:01.201Z,8.99
2022-09-28T22:01:29.333Z,8.99
2022-09-28T22:03:57.507Z,8.94
2022-09-28T22:06:29.673Z,8.93
2022-09-28T22:08:57.389Z,8.94
2022-09-28T22:11:27.778Z,8.94
2022-09-28T22:13:58.035Z,8.94
2022-09-28T22:16:28.462Z,8.98
2022-09-28T22:18:57.146Z,9.04
2022-09-28T22:21:27.724Z,9.03
2022-09-28T22:24:01.076Z,9.04
2022-09-28T22:26:31.757Z,9.05
2022-09-28T22:29:01.936Z,9.13
2022-09-28T22:31:35.162Z,9.18
2022-09-28T22:34:03.762Z,9.18
2022-09-28T22:36:32.541Z,9.17
2022-09-28T22:39:00.516Z,9.15
2022-09-28T22:41:28.485Z,9.16
2022-09-28T22:43:56.785Z,9.15
2022-09-28T22:46:26.783Z,9.16
2022-09-28T22:48:56.730Z,9.16
2022-09-28T22:51:26.120Z,9.15
2022-09-28T22:53:56.554Z,9.13
2022-09-28T22:56:24.623Z,9.10
2022-09-28T22:58:52.484Z,9.06
2022-09-28T23:01:55.878Z,9.04
2022-09-28T23:04:23.956Z,9.00
2022-09-28T23:06:53.211Z,8.91
2022-09-28T23:09:21.005Z,8.85
2022-09-28T23:11:48.897Z,8.80
2022-09-28T23:14:16.753Z,8.77
2022-09-28T23:16:44.590Z,8.73
2022-09-28T23:19:12.462Z,8.69
2022-09-28T23:21:40.817Z,8.65
2022-09-28T23:24:11.081Z,8.61
2022-09-28T23:26:43.130Z,8.58
2022-09-28T23:29:11.632Z,8.56
2022-09-28T23:31:41.168Z,8.54
2022-09-28T23:34:11.088Z,8.49
2022-09-28T23:36:39.679Z,8.42
2022-09-28T23:39:09.662Z,8.36
2022-09-28T23:41:40.000Z,8.29
2022-09-28T23:44:08.125Z,8.24
2022-09-28T23:46:36.297Z,8.23
2022-09-28T23:49:07.665Z,8.20
2022-09-28T23:51:37.968Z,8.19
2022-09-28T23:54:06.812Z,8.14
2022-09-28T23:56:34.738Z,8.06
2022-09-28T23:59:06.089Z,8.02
